sensor_id;sensor_type;location;lat;lon;timestamp;pressure;altitude;pressure_sealevel;temperature
19644;BMP180;9970;-36.854;174.870;2022-09-13T00:00:36;101170.00;;;18.00
19644;BMP180;9970;-36.854;174.870;2022-09-13T00:03:11;101167.00;;;17.90
19644;BMP180;9970;-36.854;174.870;2022-09-13T00:05:44;101164.00;;;17.90
19644;BMP180;9970;-36.854;174.870;2022-09-13T00:08:17;101166.00;;;17.90
19644;BMP180;9970;-36.854;174.870;2022-09-13T00:10:50;101162.00;;;17.90
19644;BMP180;9970;-36.854;174.870;2022-09-13T00:13:23;101149.00;;;17.90
19644;BMP180;9970;-36.854;174.870;2022-09-13T00:15:56;101159.00;;;18.00
19644;BMP180;9970;-36.854;174.870;2022-09-13T00:18:30;101151.00;;;18.00
19644;BMP180;9970;-36.854;174.870;2022-09-13T00:21:08;101150.00;;;18.00
19644;BMP180;9970;-36.854;174.870;2022-09-13T00:23:43;101153.00;;;18.10
19644;BMP180;9970;-36.854;174.870;2022-09-13T00:26:20;101149.00;;;18.10
19644;BMP180;9970;-36.854;174.870;2022-09-13T00:28:52;101148.00;;;18.20
19644;BMP180;9970;-36.854;174.870;2022-09-13T00:31:26;101149.00;;;18.30
19644;BMP180;9970;-36.854;174.870;2022-09-13T00:34:02;101148.00;;;18.30
19644;BMP180;9970;-36.854;174.870;2022-09-13T00:36:35;101147.00;;;18.30
19644;BMP180;9970;-36.854;174.870;2022-09-13T00:39:09;101157.00;;;18.30
19644;BMP180;9970;-36.854;174.870;2022-09-13T00:41:42;101153.00;;;18.30
19644;BMP180;9970;-36.854;174.870;2022-09-13T00:47:25;101145.00;;;18.30
19644;BMP180;9970;-36.854;174.870;2022-09-13T00:50:10;101134.00;;;18.30
19644;BMP180;9970;-36.854;174.870;2022-09-13T00:52:42;101130.00;;;18.30
19644;BMP180;9970;-36.854;174.870;2022-09-13T00:58:09;101129.00;;;18.40
19644;BMP180;9970;-36.854;174.870;2022-09-13T01:00:43;101133.00;;;18.30
19644;BMP180;9970;-36.854;174.870;2022-09-13T01:03:18;101137.00;;;18.30
19644;BMP180;9970;-36.854;174.870;2022-09-13T01:05:57;101134.00;;;18.30
19644;BMP180;9970;-36.854;174.870;2022-09-13T01:08:30;101134.00;;;18.40
19644;BMP180;9970;-36.854;174.870;2022-09-13T01:11:04;101127.00;;;18.30
19644;BMP180;9970;-36.854;174.870;2022-09-13T01:13:39;101137.00;;;18.30
19644;BMP180;9970;-36.854;174.870;2022-09-13T01:16:12;101134.00;;;18.30
19644;BMP180;9970;-36.854;174.870;2022-09-13T01:18:45;101122.00;;;18.30
19644;BMP180;9970;-36.854;174.870;2022-09-13T01:33:00;101114.00;;;18.30
19644;BMP180;9970;-36.854;174.870;2022-09-13T01:38:21;101118.00;;;18.40
19644;BMP180;9970;-36.854;174.870;2022-09-13T01:55:22;101090.00;;;18.20
19644;BMP180;9970;-36.854;174.870;2022-09-13T01:58:15;101078.00;;;18.10
19644;BMP180;9970;-36.854;174.870;2022-09-13T02:03:43;101066.00;;;18.00
19644;BMP180;9970;-36.854;174.870;2022-09-13T02:06:19;101075.00;;;18.00
19644;BMP180;9970;-36.854;174.870;2022-09-13T02:08:54;101075.00;;;17.90
19644;BMP180;9970;-36.854;174.870;2022-09-13T02:11:27;101078.00;;;17.90
19644;BMP180;9970;-36.854;174.870;2022-09-13T02:16:49;101070.00;;;17.80
19644;BMP180;9970;-36.854;174.870;2022-09-13T02:19:43;101073.00;;;17.80
19644;BMP180;9970;-36.854;174.870;2022-09-13T02:21:59;101069.00;;;17.80
19644;BMP180;9970;-36.854;174.870;2022-09-13T02:24:33;101054.00;;;17.80
19644;BMP180;9970;-36.854;174.870;2022-09-13T02:27:08;101059.00;;;17.70
19644;BMP180;9970;-36.854;174.870;2022-09-13T02:29:41;101061.00;;;17.80
19644;BMP180;9970;-36.854;174.870;2022-09-13T02:32:31;101060.00;;;17.70
19644;BMP180;9970;-36.854;174.870;2022-09-13T02:35:04;101060.00;;;17.70
19644;BMP180;9970;-36.854;174.870;2022-09-13T02:37:38;101054.00;;;17.70
19644;BMP180;9970;-36.854;174.870;2022-09-13T02:40:14;101050.00;;;17.80
19644;BMP180;9970;-36.854;174.870;2022-09-13T02:42:55;101044.00;;;17.80
19644;BMP180;9970;-36.854;174.870;2022-09-13T02:45:26;101047.00;;;17.80
19644;BMP180;9970;-36.854;174.870;2022-09-13T02:48:00;101045.00;;;17.80
19644;BMP180;9970;-36.854;174.870;2022-09-13T02:58:46;101034.00;;;17.70
19644;BMP180;9970;-36.854;174.870;2022-09-13T03:01:19;101042.00;;;17.70
19644;BMP180;9970;-36.854;174.870;2022-09-13T03:03:53;101035.00;;;17.70
19644;BMP180;9970;-36.854;174.870;2022-09-13T03:06:27;101027.00;;;17.70
19644;BMP180;9970;-36.854;174.870;2022-09-13T03:09:01;101026.00;;;17.70
19644;BMP180;9970;-36.854;174.870;2022-09-13T03:11:56;101031.00;;;17.60
19644;BMP180;9970;-36.854;174.870;2022-09-13T03:34:57;101023.00;;;17.20
19644;BMP180;9970;-36.854;174.870;2022-09-13T03:37:33;101018.00;;;17.20
19644;BMP180;9970;-36.854;174.870;2022-09-13T03:40:11;101026.00;;;17.10
19644;BMP180;9970;-36.854;174.870;2022-09-13T03:43:04;101017.00;;;17.10
19644;BMP180;9970;-36.854;174.870;2022-09-13T03:45:38;101018.00;;;17.10
19644;BMP180;9970;-36.854;174.870;2022-09-13T03:48:11;101021.00;;;17.10
19644;BMP180;9970;-36.854;174.870;2022-09-13T03:50:46;101017.00;;;17.10
19644;BMP180;9970;-36.854;174.870;2022-09-13T03:53:21;101013.00;;;17.10
19644;BMP180;9970;-36.854;174.870;2022-09-13T03:55:54;101016.00;;;17.00
19644;BMP180;9970;-36.854;174.870;2022-09-13T03:58:27;101006.00;;;17.00
19644;BMP180;9970;-36.854;174.870;2022-09-13T04:01:00;101002.00;;;17.00
19644;BMP180;9970;-36.854;174.870;2022-09-13T04:03:33;101005.00;;;17.00
19644;BMP180;9970;-36.854;174.870;2022-09-13T04:06:07;101014.00;;;16.90
19644;BMP180;9970;-36.854;174.870;2022-09-13T04:08:40;101021.00;;;16.90
19644;BMP180;9970;-36.854;174.870;2022-09-13T04:11:13;101013.00;;;16.90
19644;BMP180;9970;-36.854;174.870;2022-09-13T04:13:46;101013.00;;;16.80
19644;BMP180;9970;-36.854;174.870;2022-09-13T04:16:19;101019.00;;;16.80
19644;BMP180;9970;-36.854;174.870;2022-09-13T04:18:52;101024.00;;;16.80
19644;BMP180;9970;-36.854;174.870;2022-09-13T04:21:25;101011.00;;;16.80
19644;BMP180;9970;-36.854;174.870;2022-09-13T04:23:58;101013.00;;;16.80
19644;BMP180;9970;-36.854;174.870;2022-09-13T04:26:31;101024.00;;;16.70
19644;BMP180;9970;-36.854;174.870;2022-09-13T04:29:05;101012.00;;;16.70
19644;BMP180;9970;-36.854;174.870;2022-09-13T04:31:38;101016.00;;;16.70
19644;BMP180;9970;-36.854;174.870;2022-09-13T04:34:11;101023.00;;;16.70
19644;BMP180;9970;-36.854;174.870;2022-09-13T04:36:44;101028.00;;;16.70
19644;BMP180;9970;-36.854;174.870;2022-09-13T04:39:17;101027.00;;;16.70
19644;BMP180;9970;-36.854;174.870;2022-09-13T04:41:51;101032.00;;;16.60
19644;BMP180;9970;-36.854;174.870;2022-09-13T04:44:29;101027.00;;;16.60
19644;BMP180;9970;-36.854;174.870;2022-09-13T04:47:02;101029.00;;;16.60
19644;BMP180;9970;-36.854;174.870;2022-09-13T04:49:35;101035.00;;;16.50
19644;BMP180;9970;-36.854;174.870;2022-09-13T04:52:08;101053.00;;;16.50
19644;BMP180;9970;-36.854;174.870;2022-09-13T04:54:41;101064.00;;;16.50
19644;BMP180;9970;-36.854;174.870;2022-09-13T04:57:14;101079.00;;;16.50
19644;BMP180;9970;-36.854;174.870;2022-09-13T04:59:48;101067.00;;;16.30
19644;BMP180;9970;-36.854;174.870;2022-09-13T05:02:20;101067.00;;;16.10
19644;BMP180;9970;-36.854;174.870;2022-09-13T05:04:53;101071.00;;;15.90
19644;BMP180;9970;-36.854;174.870;2022-09-13T05:07:27;101071.00;;;15.80
19644;BMP180;9970;-36.854;174.870;2022-09-13T05:10:00;101068.00;;;15.70
19644;BMP180;9970;-36.854;174.870;2022-09-13T05:12:33;101078.00;;;15.50
19644;BMP180;9970;-36.854;174.870;2022-09-13T05:15:06;101072.00;;;15.50
19644;BMP180;9970;-36.854;174.870;2022-09-13T05:17:39;101063.00;;;15.40
19644;BMP180;9970;-36.854;174.870;2022-09-13T05:20:12;101060.00;;;15.30
19644;BMP180;9970;-36.854;174.870;2022-09-13T05:22:50;101047.00;;;15.20
19644;BMP180;9970;-36.854;174.870;2022-09-13T05:25:23;101064.00;;;15.20
19644;BMP180;9970;-36.854;174.870;2022-09-13T05:27:56;101064.00;;;15.10
19644;BMP180;9970;-36.854;174.870;2022-09-13T05:30:29;101070.00;;;15.00
19644;BMP180;9970;-36.854;174.870;2022-09-13T05:33:01;101070.00;;;15.00
19644;BMP180;9970;-36.854;174.870;2022-09-13T05:35:34;101089.00;;;15.00
19644;BMP180;9970;-36.854;174.870;2022-09-13T05:38:08;101091.00;;;14.90
19644;BMP180;9970;-36.854;174.870;2022-09-13T05:40:41;101101.00;;;14.90
19644;BMP180;9970;-36.854;174.870;2022-09-13T05:43:15;101110.00;;;14.90
19644;BMP180;9970;-36.854;174.870;2022-09-13T05:45:48;101105.00;;;14.80
19644;BMP180;9970;-36.854;174.870;2022-09-13T05:48:21;101111.00;;;14.80
19644;BMP180;9970;-36.854;174.870;2022-09-13T05:50:53;101120.00;;;14.80
19644;BMP180;9970;-36.854;174.870;2022-09-13T05:53:27;101114.00;;;14.80
19644;BMP180;9970;-36.854;174.870;2022-09-13T05:56:00;101106.00;;;14.80
19644;BMP180;9970;-36.854;174.870;2022-09-13T05:58:33;101113.00;;;14.80
19644;BMP180;9970;-36.854;174.870;2022-09-13T06:01:06;101106.00;;;14.80
19644;BMP180;9970;-36.854;174.870;2022-09-13T06:03:39;101114.00;;;14.70
19644;BMP180;9970;-36.854;174.870;2022-09-13T06:06:12;101108.00;;;14.70
19644;BMP180;9970;-36.854;174.870;2022-09-13T06:08:45;101113.00;;;14.70
19644;BMP180;9970;-36.854;174.870;2022-09-13T06:11:18;101101.00;;;14.70
19644;BMP180;9970;-36.854;174.870;2022-09-13T06:14:02;101094.00;;;14.70
19644;BMP180;9970;-36.854;174.870;2022-09-13T06:16:32;101100.00;;;14.70
19644;BMP180;9970;-36.854;174.870;2022-09-13T06:19:05;101103.00;;;14.70
19644;BMP180;9970;-36.854;174.870;2022-09-13T06:21:38;101110.00;;;14.70
19644;BMP180;9970;-36.854;174.870;2022-09-13T06:24:12;101116.00;;;14.70
19644;BMP180;9970;-36.854;174.870;2022-09-13T06:26:45;101102.00;;;14.60
19644;BMP180;9970;-36.854;174.870;2022-09-13T06:29:18;101120.00;;;14.60
19644;BMP180;9970;-36.854;174.870;2022-09-13T06:31:51;101123.00;;;14.60
19644;BMP180;9970;-36.854;174.870;2022-09-13T06:34:24;101119.00;;;14.60
19644;BMP180;9970;-36.854;174.870;2022-09-13T06:36:58;101126.00;;;14.60
19644;BMP180;9970;-36.854;174.870;2022-09-13T06:39:31;101133.00;;;14.60
19644;BMP180;9970;-36.854;174.870;2022-09-13T06:42:04;101138.00;;;14.60
19644;BMP180;9970;-36.854;174.870;2022-09-13T06:44:37;101146.00;;;14.60
19644;BMP180;9970;-36.854;174.870;2022-09-13T06:47:10;101137.00;;;14.60
19644;BMP180;9970;-36.854;174.870;2022-09-13T06:49:43;101141.00;;;14.60
19644;BMP180;9970;-36.854;174.870;2022-09-13T06:52:16;101138.00;;;14.50
19644;BMP180;9970;-36.854;174.870;2022-09-13T06:54:49;101138.00;;;14.50
19644;BMP180;9970;-36.854;174.870;2022-09-13T06:57:22;101136.00;;;14.50
19644;BMP180;9970;-36.854;174.870;2022-09-13T06:59:54;101128.00;;;14.50
19644;BMP180;9970;-36.854;174.870;2022-09-13T07:02:30;101128.00;;;14.60
19644;BMP180;9970;-36.854;174.870;2022-09-13T07:05:04;101127.00;;;14.60
19644;BMP180;9970;-36.854;174.870;2022-09-13T07:07:37;101145.00;;;14.60
19644;BMP180;9970;-36.854;174.870;2022-09-13T07:10:10;101148.00;;;14.60
19644;BMP180;9970;-36.854;174.870;2022-09-13T07:12:43;101148.00;;;14.60
19644;BMP180;9970;-36.854;174.870;2022-09-13T07:15:16;101144.00;;;14.60
19644;BMP180;9970;-36.854;174.870;2022-09-13T07:17:49;101153.00;;;14.60
19644;BMP180;9970;-36.854;174.870;2022-09-13T07:20:22;101161.00;;;14.60
19644;BMP180;9970;-36.854;174.870;2022-09-13T07:22:55;101156.00;;;14.60
19644;BMP180;9970;-36.854;174.870;2022-09-13T07:25:28;101164.00;;;14.60
19644;BMP180;9970;-36.854;174.870;2022-09-13T07:28:01;101166.00;;;14.60
19644;BMP180;9970;-36.854;174.870;2022-09-13T07:30:34;101165.00;;;14.60
19644;BMP180;9970;-36.854;174.870;2022-09-13T07:33:08;101170.00;;;14.60
19644;BMP180;9970;-36.854;174.870;2022-09-13T07:35:42;101178.00;;;14.60
19644;BMP180;9970;-36.854;174.870;2022-09-13T07:38:15;101180.00;;;14.50
19644;BMP180;9970;-36.854;174.870;2022-09-13T07:40:55;101192.00;;;14.50
19644;BMP180;9970;-36.854;174.870;2022-09-13T07:43:29;101191.00;;;14.50
19644;BMP180;9970;-36.854;174.870;2022-09-13T07:46:04;101189.00;;;14.50
19644;BMP180;9970;-36.854;174.870;2022-09-13T07:48:38;101199.00;;;14.50
19644;BMP180;9970;-36.854;174.870;2022-09-13T07:51:13;101204.00;;;14.50
19644;BMP180;9970;-36.854;174.870;2022-09-13T07:53:47;101217.00;;;14.50
19644;BMP180;9970;-36.854;174.870;2022-09-13T07:56:22;101225.00;;;14.50
19644;BMP180;9970;-36.854;174.870;2022-09-13T07:58:57;101224.00;;;14.50
19644;BMP180;9970;-36.854;174.870;2022-09-13T08:01:41;101221.00;;;14.40
19644;BMP180;9970;-36.854;174.870;2022-09-13T08:04:16;101218.00;;;14.40
19644;BMP180;9970;-36.854;174.870;2022-09-13T08:06:49;101222.00;;;14.40
19644;BMP180;9970;-36.854;174.870;2022-09-13T08:09:22;101216.00;;;14.40
19644;BMP180;9970;-36.854;174.870;2022-09-13T08:11:55;101216.00;;;14.40
19644;BMP180;9970;-36.854;174.870;2022-09-13T08:14:28;101220.00;;;14.40
19644;BMP180;9970;-36.854;174.870;2022-09-13T08:17:01;101224.00;;;14.40
19644;BMP180;9970;-36.854;174.870;2022-09-13T08:19:34;101228.00;;;14.40
19644;BMP180;9970;-36.854;174.870;2022-09-13T08:22:07;101217.00;;;14.40
19644;BMP180;9970;-36.854;174.870;2022-09-13T08:24:40;101223.00;;;14.40
19644;BMP180;9970;-36.854;174.870;2022-09-13T08:27:13;101220.00;;;14.40
19644;BMP180;9970;-36.854;174.870;2022-09-13T08:29:45;101226.00;;;14.40
19644;BMP180;9970;-36.854;174.870;2022-09-13T08:32:19;101221.00;;;14.40
19644;BMP180;9970;-36.854;174.870;2022-09-13T08:34:51;101228.00;;;14.40
19644;BMP180;9970;-36.854;174.870;2022-09-13T08:37:24;101229.00;;;14.40
19644;BMP180;9970;-36.854;174.870;2022-09-13T08:39:57;101222.00;;;14.40
19644;BMP180;9970;-36.854;174.870;2022-09-13T08:43:14;101219.00;;;14.40
19644;BMP180;9970;-36.854;174.870;2022-09-13T08:45:08;101229.00;;;14.40
19644;BMP180;9970;-36.854;174.870;2022-09-13T08:48:00;101229.00;;;14.40
19644;BMP180;9970;-36.854;174.870;2022-09-13T08:50:33;101226.00;;;14.40
19644;BMP180;9970;-36.854;174.870;2022-09-13T08:53:22;101235.00;;;14.40
19644;BMP180;9970;-36.854;174.870;2022-09-13T08:56:18;101229.00;;;14.30
19644;BMP180;9970;-36.854;174.870;2022-09-13T08:58:50;101238.00;;;14.40
19644;BMP180;9970;-36.854;174.870;2022-09-13T09:01:37;101243.00;;;14.30
19644;BMP180;9970;-36.854;174.870;2022-09-13T09:04:33;101230.00;;;14.30
19644;BMP180;9970;-36.854;174.870;2022-09-13T09:06:44;101236.00;;;14.30
19644;BMP180;9970;-36.854;174.870;2022-09-13T09:09:18;101234.00;;;14.30
19644;BMP180;9970;-36.854;174.870;2022-09-13T09:11:55;101240.00;;;14.20
19644;BMP180;9970;-36.854;174.870;2022-09-13T09:14:31;101244.00;;;14.20
19644;BMP180;9970;-36.854;174.870;2022-09-13T09:17:19;101237.00;;;14.20
19644;BMP180;9970;-36.854;174.870;2022-09-13T09:20:04;101238.00;;;14.20
19644;BMP180;9970;-36.854;174.870;2022-09-13T09:22:36;101246.00;;;14.20
19644;BMP180;9970;-36.854;174.870;2022-09-13T09:25:09;101247.00;;;14.20
19644;BMP180;9970;-36.854;174.870;2022-09-13T09:27:43;101248.00;;;14.20
19644;BMP180;9970;-36.854;174.870;2022-09-13T09:30:16;101249.00;;;14.20
19644;BMP180;9970;-36.854;174.870;2022-09-13T09:35:50;101248.00;;;14.20
19644;BMP180;9970;-36.854;174.870;2022-09-13T09:41:27;101244.00;;;14.20
19644;BMP180;9970;-36.854;174.870;2022-09-13T09:44:20;101244.00;;;14.20
19644;BMP180;9970;-36.854;174.870;2022-09-13T09:47:02;101242.00;;;14.20
19644;BMP180;9970;-36.854;174.870;2022-09-13T09:49:36;101245.00;;;14.20
19644;BMP180;9970;-36.854;174.870;2022-09-13T09:55:26;101262.00;;;14.20
19644;BMP180;9970;-36.854;174.870;2022-09-13T09:57:56;101271.00;;;14.20
19644;BMP180;9970;-36.854;174.870;2022-09-13T10:00:37;101270.00;;;14.20
19644;BMP180;9970;-36.854;174.870;2022-09-13T10:03:16;101266.00;;;14.20
19644;BMP180;9970;-36.854;174.870;2022-09-13T10:05:49;101264.00;;;14.20
19644;BMP180;9970;-36.854;174.870;2022-09-13T10:08:29;101259.00;;;14.20
19644;BMP180;9970;-36.854;174.870;2022-09-13T10:11:06;101261.00;;;14.20
19644;BMP180;9970;-36.854;174.870;2022-09-13T10:13:57;101263.00;;;14.20
19644;BMP180;9970;-36.854;174.870;2022-09-13T10:16:33;101260.00;;;14.20
19644;BMP180;9970;-36.854;174.870;2022-09-13T10:19:25;101257.00;;;14.20
19644;BMP180;9970;-36.854;174.870;2022-09-13T10:22:03;101263.00;;;14.20
19644;BMP180;9970;-36.854;174.870;2022-09-13T10:24:36;101262.00;;;14.20
19644;BMP180;9970;-36.854;174.870;2022-09-13T10:27:31;101261.00;;;14.20
19644;BMP180;9970;-36.854;174.870;2022-09-13T10:30:28;101270.00;;;14.20
19644;BMP180;9970;-36.854;174.870;2022-09-13T10:32:40;101266.00;;;14.20
19644;BMP180;9970;-36.854;174.870;2022-09-13T10:35:16;101249.00;;;14.30
19644;BMP180;9970;-36.854;174.870;2022-09-13T10:37:50;101251.00;;;14.30
19644;BMP180;9970;-36.854;174.870;2022-09-13T10:40:33;101254.00;;;14.30
19644;BMP180;9970;-36.854;174.870;2022-09-13T10:43:12;101257.00;;;14.30
19644;BMP180;9970;-36.854;174.870;2022-09-13T10:45:42;101252.00;;;14.30
19644;BMP180;9970;-36.854;174.870;2022-09-13T10:48:16;101259.00;;;14.30
19644;BMP180;9970;-36.854;174.870;2022-09-13T10:51:07;101267.00;;;14.30
19644;BMP180;9970;-36.854;174.870;2022-09-13T10:53:41;101266.00;;;14.30
19644;BMP180;9970;-36.854;174.870;2022-09-13T10:56:22;101259.00;;;14.30
19644;BMP180;9970;-36.854;174.870;2022-09-13T10:59:16;101244.00;;;14.30
19644;BMP180;9970;-36.854;174.870;2022-09-13T11:08:06;101265.00;;;14.20
19644;BMP180;9970;-36.854;174.870;2022-09-13T11:10:45;101265.00;;;14.20
19644;BMP180;9970;-36.854;174.870;2022-09-13T11:22:14;101264.00;;;14.10
19644;BMP180;9970;-36.854;174.870;2022-09-13T11:25:04;101248.00;;;14.10
19644;BMP180;9970;-36.854;174.870;2022-09-13T11:27:43;101254.00;;;14.10
19644;BMP180;9970;-36.854;174.870;2022-09-13T11:30:16;101247.00;;;14.10
19644;BMP180;9970;-36.854;174.870;2022-09-13T11:35:48;101238.00;;;14.10
19644;BMP180;9970;-36.854;174.870;2022-09-13T11:46:49;101262.00;;;14.00
19644;BMP180;9970;-36.854;174.870;2022-09-13T11:49:33;101265.00;;;14.00
19644;BMP180;9970;-36.854;174.870;2022-09-13T11:52:16;101275.00;;;13.90
19644;BMP180;9970;-36.854;174.870;2022-09-13T11:55:02;101258.00;;;13.90
19644;BMP180;9970;-36.854;174.870;2022-09-13T11:57:38;101265.00;;;13.90
19644;BMP180;9970;-36.854;174.870;2022-09-13T12:05:56;101272.00;;;13.90
19644;BMP180;9970;-36.854;174.870;2022-09-13T12:08:39;101279.00;;;13.90
19644;BMP180;9970;-36.854;174.870;2022-09-13T12:11:15;101278.00;;;13.90
19644;BMP180;9970;-36.854;174.870;2022-09-13T12:13:52;101287.00;;;13.90
19644;BMP180;9970;-36.854;174.870;2022-09-13T12:16:32;101289.00;;;13.80
19644;BMP180;9970;-36.854;174.870;2022-09-13T12:19:11;101294.00;;;13.80
19644;BMP180;9970;-36.854;174.870;2022-09-13T12:21:42;101296.00;;;13.90
19644;BMP180;9970;-36.854;174.870;2022-09-13T12:24:17;101297.00;;;13.90
19644;BMP180;9970;-36.854;174.870;2022-09-13T12:27:18;101301.00;;;13.90
19644;BMP180;9970;-36.854;174.870;2022-09-13T12:29:53;101303.00;;;13.90
19644;BMP180;9970;-36.854;174.870;2022-09-13T12:32:21;101307.00;;;13.90
19644;BMP180;9970;-36.854;174.870;2022-09-13T12:34:57;101293.00;;;13.90
19644;BMP180;9970;-36.854;174.870;2022-09-13T12:40:33;101299.00;;;13.90
19644;BMP180;9970;-36.854;174.870;2022-09-13T12:46:07;101299.00;;;13.90
19644;BMP180;9970;-36.854;174.870;2022-09-13T12:51:33;101303.00;;;13.90
19644;BMP180;9970;-36.854;174.870;2022-09-13T12:54:34;101295.00;;;13.90
19644;BMP180;9970;-36.854;174.870;2022-09-13T12:57:35;101305.00;;;13.90
19644;BMP180;9970;-36.854;174.870;2022-09-13T13:00:18;101309.00;;;13.90
19644;BMP180;9970;-36.854;174.870;2022-09-13T13:05:55;101313.00;;;13.90
19644;BMP180;9970;-36.854;174.870;2022-09-13T13:08:25;101315.00;;;13.90
19644;BMP180;9970;-36.854;174.870;2022-09-13T13:11:09;101312.00;;;13.90
19644;BMP180;9970;-36.854;174.870;2022-09-13T13:13:43;101305.00;;;14.00
19644;BMP180;9970;-36.854;174.870;2022-09-13T13:16:29;101300.00;;;13.90
19644;BMP180;9970;-36.854;174.870;2022-09-13T13:18:58;101302.00;;;14.00
19644;BMP180;9970;-36.854;174.870;2022-09-13T13:21:38;101294.00;;;14.00
19644;BMP180;9970;-36.854;174.870;2022-09-13T13:26:53;101295.00;;;14.00
19644;BMP180;9970;-36.854;174.870;2022-09-13T13:29:31;101299.00;;;14.00
19644;BMP180;9970;-36.854;174.870;2022-09-13T13:32:11;101305.00;;;14.00
19644;BMP180;9970;-36.854;174.870;2022-09-13T13:34:48;101310.00;;;13.90
19644;BMP180;9970;-36.854;174.870;2022-09-13T13:37:25;101307.00;;;14.00
19644;BMP180;9970;-36.854;174.870;2022-09-13T13:43:15;101294.00;;;13.90
19644;BMP180;9970;-36.854;174.870;2022-09-13T13:45:28;101297.00;;;13.90
19644;BMP180;9970;-36.854;174.870;2022-09-13T13:48:11;101294.00;;;13.90
19644;BMP180;9970;-36.854;174.870;2022-09-13T13:51:22;101302.00;;;13.90
19644;BMP180;9970;-36.854;174.870;2022-09-13T13:53:58;101290.00;;;13.80
19644;BMP180;9970;-36.854;174.870;2022-09-13T13:56:43;101300.00;;;13.80
19644;BMP180;9970;-36.854;174.870;2022-09-13T13:59:16;101304.00;;;13.80
19644;BMP180;9970;-36.854;174.870;2022-09-13T14:01:58;101294.00;;;13.80
19644;BMP180;9970;-36.854;174.870;2022-09-13T14:07:46;101289.00;;;13.80
19644;BMP180;9970;-36.854;174.870;2022-09-13T14:10:29;101282.00;;;13.80
19644;BMP180;9970;-36.854;174.870;2022-09-13T14:13:34;101271.00;;;13.70
19644;BMP180;9970;-36.854;174.870;2022-09-13T14:19:33;101268.00;;;13.70
19644;BMP180;9970;-36.854;174.870;2022-09-13T14:24:55;101262.00;;;13.60
19644;BMP180;9970;-36.854;174.870;2022-09-13T14:27:35;101265.00;;;13.60
19644;BMP180;9970;-36.854;174.870;2022-09-13T14:30:40;101266.00;;;13.60
19644;BMP180;9970;-36.854;174.870;2022-09-13T14:32:48;101257.00;;;13.60
19644;BMP180;9970;-36.854;174.870;2022-09-13T14:35:26;101256.00;;;13.60
19644;BMP180;9970;-36.854;174.870;2022-09-13T14:38:17;101248.00;;;13.60
19644;BMP180;9970;-36.854;174.870;2022-09-13T14:40:53;101244.00;;;13.60
19644;BMP180;9970;-36.854;174.870;2022-09-13T14:43:27;101250.00;;;13.50
19644;BMP180;9970;-36.854;174.870;2022-09-13T14:49:07;101256.00;;;13.50
19644;BMP180;9970;-36.854;174.870;2022-09-13T14:51:47;101261.00;;;13.50
19644;BMP180;9970;-36.854;174.870;2022-09-13T14:57:08;101261.00;;;13.40
19644;BMP180;9970;-36.854;174.870;2022-09-13T14:59:49;101262.00;;;13.30
19644;BMP180;9970;-36.854;174.870;2022-09-13T15:02:24;101254.00;;;13.30
19644;BMP180;9970;-36.854;174.870;2022-09-13T15:04:58;101242.00;;;13.30
19644;BMP180;9970;-36.854;174.870;2022-09-13T15:07:36;101239.00;;;13.30
19644;BMP180;9970;-36.854;174.870;2022-09-13T15:10:33;101253.00;;;13.30
19644;BMP180;9970;-36.854;174.870;2022-09-13T15:13:08;101249.00;;;13.30
19644;BMP180;9970;-36.854;174.870;2022-09-13T15:15:45;101260.00;;;13.20
19644;BMP180;9970;-36.854;174.870;2022-09-13T15:18:40;101260.00;;;13.20
19644;BMP180;9970;-36.854;174.870;2022-09-13T15:21:01;101250.00;;;13.20
19644;BMP180;9970;-36.854;174.870;2022-09-13T15:23:39;101246.00;;;13.20
19644;BMP180;9970;-36.854;174.870;2022-09-13T15:26:20;101259.00;;;13.20
19644;BMP180;9970;-36.854;174.870;2022-09-13T15:28:57;101261.00;;;13.20
19644;BMP180;9970;-36.854;174.870;2022-09-13T15:31:35;101249.00;;;13.20
19644;BMP180;9970;-36.854;174.870;2022-09-13T15:34:21;101240.00;;;13.20
19644;BMP180;9970;-36.854;174.870;2022-09-13T15:37:12;101242.00;;;13.20
19644;BMP180;9970;-36.854;174.870;2022-09-13T15:39:47;101234.00;;;13.20
19644;BMP180;9970;-36.854;174.870;2022-09-13T15:42:21;101232.00;;;13.20
19644;BMP180;9970;-36.854;174.870;2022-09-13T15:44:53;101236.00;;;13.20
19644;BMP180;9970;-36.854;174.870;2022-09-13T15:47:26;101239.00;;;13.20
19644;BMP180;9970;-36.854;174.870;2022-09-13T15:49:59;101227.00;;;13.20
19644;BMP180;9970;-36.854;174.870;2022-09-13T15:52:32;101240.00;;;13.20
19644;BMP180;9970;-36.854;174.870;2022-09-13T15:55:09;101234.00;;;13.20
19644;BMP180;9970;-36.854;174.870;2022-09-13T15:57:42;101230.00;;;13.20
19644;BMP180;9970;-36.854;174.870;2022-09-13T16:00:25;101235.00;;;13.20
19644;BMP180;9970;-36.854;174.870;2022-09-13T16:02:56;101241.00;;;13.20
19644;BMP180;9970;-36.854;174.870;2022-09-13T16:05:30;101235.00;;;13.20
19644;BMP180;9970;-36.854;174.870;2022-09-13T16:08:05;101240.00;;;13.20
19644;BMP180;9970;-36.854;174.870;2022-09-13T16:10:38;101238.00;;;13.20
19644;BMP180;9970;-36.854;174.870;2022-09-13T16:13:11;101234.00;;;13.20
19644;BMP180;9970;-36.854;174.870;2022-09-13T16:15:44;101230.00;;;13.20
19644;BMP180;9970;-36.854;174.870;2022-09-13T16:18:17;101226.00;;;13.20
19644;BMP180;9970;-36.854;174.870;2022-09-13T16:20:49;101237.00;;;13.20
19644;BMP180;9970;-36.854;174.870;2022-09-13T16:23:22;101247.00;;;13.20
19644;BMP180;9970;-36.854;174.870;2022-09-13T16:25:56;101238.00;;;13.20
19644;BMP180;9970;-36.854;174.870;2022-09-13T16:28:32;101239.00;;;13.10
19644;BMP180;9970;-36.854;174.870;2022-09-13T16:31:05;101243.00;;;13.10
19644;BMP180;9970;-36.854;174.870;2022-09-13T16:33:38;101239.00;;;13.10
19644;BMP180;9970;-36.854;174.870;2022-09-13T16:36:12;101239.00;;;13.10
19644;BMP180;9970;-36.854;174.870;2022-09-13T16:38:45;101245.00;;;13.10
19644;BMP180;9970;-36.854;174.870;2022-09-13T16:41:17;101245.00;;;13.10
19644;BMP180;9970;-36.854;174.870;2022-09-13T16:43:50;101251.00;;;13.10